createdAt,value
2023-02-07T00:00:36.344Z,78.15
2023-02-07T00:03:30.781Z,76.89
2023-02-07T00:06:09.059Z,76.90
2023-02-07T00:08:42.440Z,76.27
2023-02-07T00:11:17.395Z,76.05
2023-02-07T00:13:52.980Z,75.16
2023-02-07T00:16:26.502Z,76.37
2023-02-07T00:19:01.552Z,75.90
2023-02-07T00:21:33.820Z,76.69
2023-02-07T00:24:08.451Z,77.96
2023-02-07T00:26:40.143Z,78.38
2023-02-07T00:29:14.884Z,75.37
2023-02-07T00:31:46.587Z,74.53
2023-02-07T00:34:21.318Z,74.47
2023-02-07T00:36:53.120Z,74.38
2023-02-07T00:39:25.143Z,75.01
2023-02-07T00:41:56.969Z,75.02
2023-02-07T00:44:28.898Z,76.38
2023-02-07T00:47:00.692Z,76.49
2023-02-07T00:49:35.386Z,76.59
2023-02-07T00:52:07.776Z,76.76
2023-02-07T00:54:39.629Z,77.07
2023-02-07T00:57:11.751Z,77.66
2023-02-07T00:59:48.818Z,77.33
2023-02-07T01:02:26.968Z,77.68
2023-02-07T01:05:05.387Z,78.33
2023-02-07T01:07:37.396Z,78.81
2023-02-07T01:10:10.430Z,78.93
2023-02-07T01:12:41.836Z,79.40
2023-02-07T01:15:15.755Z,79.98
2023-02-07T01:17:47.650Z,79.68
2023-02-07T01:20:21.986Z,79.88
2023-02-07T01:22:53.361Z,80.01
2023-02-07T01:25:24.982Z,80.23
2023-02-07T01:27:59.772Z,80.41
2023-02-07T01:30:33.903Z,80.58
2023-02-07T01:33:05.846Z,80.78
2023-02-07T01:35:41.263Z,79.91
2023-02-07T01:38:13.204Z,80.26
2023-02-07T01:40:45.592Z,80.52
2023-02-07T01:43:28.570Z,80.10
2023-02-07T01:46:00.785Z,80.66
2023-02-07T01:48:36.366Z,80.99
2023-02-07T01:51:11.711Z,81.28
2023-02-07T01:53:44.608Z,81.85
2023-02-07T01:56:30.735Z,81.38
2023-02-07T01:59:07.627Z,81.40
2023-02-07T02:01:39.943Z,81.32
2023-02-07T02:04:11.715Z,81.26
2023-02-07T02:07:00.445Z,82.00
2023-02-07T02:09:34.723Z,81.81
2023-02-07T02:12:35.316Z,81.78
2023-02-07T02:15:23.501Z,81.66
2023-02-07T02:18:13.728Z,81.77
2023-02-07T02:21:22.676Z,81.66
2023-02-07T02:24:23.657Z,82.14
2023-02-07T02:27:09.569Z,81.86
2023-02-07T02:30:32.794Z,82.47
2023-02-07T02:33:30.385Z,82.24
2023-02-07T02:36:14.231Z,82.39
2023-02-07T02:38:54.413Z,82.38
2023-02-07T02:41:33.754Z,82.45
2023-02-07T02:44:11.082Z,82.53
2023-02-07T02:46:45.929Z,82.22
2023-02-07T02:49:26.395Z,82.39
2023-02-07T02:52:03.420Z,82.14
2023-02-07T02:54:37.540Z,81.89
2023-02-07T02:57:27.781Z,82.02
2023-02-07T03:00:26.682Z,81.99
2023-02-07T03:03:15.751Z,81.67
2023-02-07T03:06:05.149Z,81.21
2023-02-07T03:08:48.620Z,81.40
2023-02-07T03:11:52.836Z,81.90
2023-02-07T03:14:36.885Z,81.29
2023-02-07T03:17:18.163Z,80.91
2023-02-07T03:19:57.521Z,80.99
2023-02-07T03:22:33.069Z,80.42
2023-02-07T03:25:10.907Z,80.18
2023-02-07T03:27:43.942Z,80.03
2023-02-07T03:30:22.469Z,79.54
2023-02-07T03:33:00.014Z,79.52
2023-02-07T03:35:38.064Z,80.23
2023-02-07T03:38:14.215Z,80.04
2023-02-07T03:40:50.953Z,80.10
2023-02-07T03:43:28.326Z,79.85
2023-02-07T03:46:00.854Z,80.14
2023-02-07T03:48:32.592Z,80.36
2023-02-07T03:51:04.767Z,80.32
2023-02-07T03:53:39.355Z,80.17
2023-02-07T03:56:12.969Z,80.09
2023-02-07T03:58:45.548Z,79.68
2023-02-07T04:01:17.499Z,79.76
2023-02-07T04:03:52.272Z,79.48
2023-02-07T04:06:24.850Z,78.97
2023-02-07T04:09:00.928Z,78.90
2023-02-07T04:11:35.016Z,79.24
2023-02-07T04:14:07.416Z,79.74
2023-02-07T04:16:39.781Z,79.71
2023-02-07T04:19:11.945Z,79.38
2023-02-07T04:21:44.334Z,79.41
2023-02-07T04:24:19.187Z,79.48
2023-02-07T04:26:52.022Z,79.04
2023-02-07T04:29:24.300Z,79.10
2023-02-07T04:31:58.884Z,79.46
2023-02-07T04:34:31.288Z,80.12
2023-02-07T04:37:03.678Z,80.44
2023-02-07T04:39:38.741Z,79.98
2023-02-07T04:42:11.132Z,78.79
2023-02-07T04:44:44.211Z,78.98
2023-02-07T04:47:16.892Z,78.73
2023-02-07T04:49:48.797Z,79.36
2023-02-07T04:52:20.677Z,78.35
2023-02-07T04:54:54.917Z,77.70
2023-02-07T04:57:26.953Z,77.52
2023-02-07T05:00:00.690Z,78.24
2023-02-07T05:02:32.739Z,78.83
2023-02-07T05:05:07.215Z,78.96
2023-02-07T05:07:38.908Z,79.48
2023-02-07T05:10:13.364Z,79.58
2023-02-07T05:12:46.635Z,78.98
2023-02-07T05:15:18.548Z,79.44
2023-02-07T05:17:52.910Z,80.04
2023-02-07T05:20:32.012Z,79.82
2023-02-07T05:23:07.324Z,80.12
2023-02-07T05:25:41.770Z,80.00
2023-02-07T05:28:17.489Z,79.76
2023-02-07T05:30:56.036Z,79.20
2023-02-07T05:33:25.678Z,79.24
2023-02-07T05:36:03.429Z,79.00
2023-02-07T05:38:35.361Z,77.83
2023-02-07T05:41:11.221Z,78.48
2023-02-07T05:43:44.998Z,78.63
2023-02-07T05:46:19.362Z,77.69
2023-02-07T05:48:57.546Z,77.61
2023-02-07T05:51:33.762Z,78.27
2023-02-07T05:54:07.958Z,76.91
2023-02-07T05:56:42.182Z,77.77
2023-02-07T05:59:17.455Z,78.57
2023-02-07T06:01:53.035Z,77.75
2023-02-07T06:04:27.841Z,77.69
2023-02-07T06:07:03.884Z,77.67
2023-02-07T06:09:35.715Z,76.85
2023-02-07T06:12:10.830Z,77.14
2023-02-07T06:14:42.741Z,76.85
2023-02-07T06:17:14.826Z,76.77
2023-02-07T06:19:46.860Z,77.54
2023-02-07T06:22:18.793Z,77.03
2023-02-07T06:24:52.356Z,77.49
2023-02-07T06:27:26.682Z,78.45
2023-02-07T06:29:58.874Z,78.47
2023-02-07T06:32:34.306Z,78.78
2023-02-07T06:35:06.780Z,78.48
2023-02-07T06:37:37.998Z,77.83
2023-02-07T06:40:10.761Z,77.84
2023-02-07T06:42:46.669Z,78.23
2023-02-07T06:45:18.534Z,78.66
2023-02-07T06:47:51.305Z,77.87
2023-02-07T06:50:23.410Z,78.37
2023-02-07T06:52:55.196Z,77.91
2023-02-07T06:55:30.941Z,78.06
2023-02-07T06:58:08.470Z,77.33
2023-02-07T07:00:41.058Z,77.58
2023-02-07T07:03:18.891Z,77.75
2023-02-07T07:05:51.021Z,77.32
2023-02-07T07:08:22.944Z,77.63
2023-02-07T07:10:59.707Z,77.00
2023-02-07T07:13:34.247Z,77.37
2023-02-07T07:16:06.787Z,76.47
2023-02-07T07:18:39.431Z,77.65
2023-02-07T07:21:13.524Z,76.81
2023-02-07T07:23:45.301Z,77.14
2023-02-07T07:26:17.313Z,77.35
2023-02-07T07:28:51.924Z,77.06
2023-02-07T07:31:24.590Z,77.36
2023-02-07T07:33:58.268Z,76.13
2023-02-07T07:36:30.995Z,76.70
2023-02-07T07:39:08.306Z,76.62
2023-02-07T07:41:41.143Z,77.01
2023-02-07T07:44:16.385Z,77.31
2023-02-07T07:46:48.654Z,76.71
2023-02-07T07:49:21.165Z,76.80
2023-02-07T07:51:53.890Z,77.56
2023-02-07T07:54:26.401Z,76.63
2023-02-07T07:57:02.721Z,75.93
2023-02-07T07:59:37.763Z,75.25
2023-02-07T08:02:10.440Z,75.93
2023-02-07T08:04:42.481Z,74.79
2023-02-07T08:07:32.036Z,73.98
2023-02-07T08:10:03.895Z,74.23
2023-02-07T08:12:37.896Z,72.50
2023-02-07T08:15:15.640Z,73.16
2023-02-07T08:17:50.175Z,72.78
2023-02-07T08:20:23.084Z,72.80
2023-02-07T08:22:54.512Z,73.11
2023-02-07T08:25:29.374Z,72.36
2023-02-07T08:28:04.657Z,73.50
2023-02-07T08:30:40.389Z,73.32
2023-02-07T08:33:12.457Z,72.25
2023-02-07T08:35:44.909Z,71.58
2023-02-07T08:38:16.611Z,71.73
2023-02-07T08:40:49.690Z,70.89
2023-02-07T08:43:27.942Z,69.47
2023-02-07T08:46:03.104Z,69.89
2023-02-07T08:48:34.478Z,69.24
2023-02-07T08:51:11.711Z,69.98
2023-02-07T08:53:43.768Z,70.21
2023-02-07T08:56:18.423Z,69.75
2023-02-07T08:58:52.051Z,67.91
2023-02-07T09:01:27.606Z,67.83
2023-02-07T09:03:59.743Z,68.08
2023-02-07T09:06:32.352Z,67.79
2023-02-07T09:09:03.962Z,66.73
2023-02-07T09:11:36.651Z,67.00
2023-02-07T09:14:09.568Z,66.81
2023-02-07T09:16:44.024Z,65.80
2023-02-07T09:19:16.074Z,66.26
2023-02-07T09:21:48.520Z,66.32
2023-02-07T09:24:21.172Z,64.83
2023-02-07T09:26:53.338Z,63.93
2023-02-07T09:29:25.322Z,62.49
2023-02-07T09:31:59.644Z,58.93
2023-02-07T09:34:33.384Z,58.94
2023-02-07T09:37:06.458Z,56.82
2023-02-07T09:39:43.177Z,55.38
2023-02-07T09:42:27.774Z,54.91
2023-02-07T09:45:05.306Z,54.47
2023-02-07T09:47:44.735Z,54.06
2023-02-07T09:50:21.837Z,53.32
2023-02-07T09:53:00.139Z,52.42
2023-02-07T09:55:48.298Z,53.72
2023-02-07T09:58:30.974Z,52.29
2023-02-07T10:01:09.439Z,52.43
2023-02-07T10:03:50.293Z,50.41
2023-02-07T10:06:29.216Z,51.65
2023-02-07T10:09:03.688Z,52.13
2023-02-07T10:11:48.805Z,51.53
2023-02-07T10:14:51.990Z,51.31
2023-02-07T10:17:35.766Z,49.83
2023-02-07T10:20:35.593Z,49.49
2023-02-07T10:23:34.082Z,49.30
2023-02-07T10:26:20.036Z,49.30
2023-02-07T10:29:19.091Z,49.84
2023-02-07T10:31:55.053Z,49.84
2023-02-07T10:34:31.156Z,51.50
2023-02-07T10:37:18.669Z,50.46
2023-02-07T10:39:58.058Z,50.06
2023-02-07T10:42:34.443Z,51.32
2023-02-07T10:45:08.625Z,51.23
2023-02-07T10:47:45.088Z,49.42
2023-02-07T10:50:29.280Z,48.88
2023-02-07T10:53:05.889Z,47.66
2023-02-07T10:55:46.936Z,48.77
2023-02-07T10:58:24.024Z,49.05
2023-02-07T11:01:01.471Z,49.30
2023-02-07T11:03:33.247Z,49.49
2023-02-07T11:09:28.134Z,49.16
2023-02-07T11:12:00.621Z,49.61
2023-02-07T11:14:34.890Z,49.54
2023-02-07T11:17:08.622Z,50.29
2023-02-07T11:19:41.948Z,50.84
2023-02-07T11:22:22.655Z,50.35
2023-02-07T11:25:05.737Z,49.82
2023-02-07T11:27:42.298Z,51.07
2023-02-07T11:30:22.623Z,51.68
2023-02-07T11:33:00.737Z,49.38
2023-02-07T11:35:33.755Z,49.54
2023-02-07T11:38:15.541Z,48.26
2023-02-07T11:40:53.495Z,47.97
2023-02-07T11:43:26.225Z,48.36
2023-02-07T11:46:07.194Z,48.31
2023-02-07T11:48:43.742Z,49.43
2023-02-07T11:51:22.513Z,50.40
2023-02-07T11:54:00.945Z,49.99
2023-02-07T11:56:42.246Z,50.22
2023-02-07T11:59:21.766Z,49.47
2023-02-07T12:01:57.447Z,49.30
2023-02-07T12:04:33.855Z,47.47
2023-02-07T12:07:17.288Z,49.15
2023-02-07T12:09:56.408Z,49.09
2023-02-07T12:12:42.486Z,49.33
2023-02-07T12:15:21.061Z,48.85
2023-02-07T12:18:02.781Z,48.76
2023-02-07T12:20:38.436Z,50.00
2023-02-07T12:23:40.915Z,49.22
2023-02-07T12:26:18.146Z,49.40
2023-02-07T12:29:13.990Z,48.48
2023-02-07T12:31:58.224Z,48.06
2023-02-07T12:34:36.077Z,46.95
2023-02-07T12:37:20.939Z,49.00
2023-02-07T12:40:02.952Z,48.74
2023-02-07T12:42:41.855Z,48.10
2023-02-07T12:45:34.315Z,47.48
2023-02-07T12:48:16.175Z,49.32
2023-02-07T12:51:17.094Z,48.64
2023-02-07T12:54:09.376Z,47.52
2023-02-07T12:56:56.601Z,47.68
2023-02-07T12:59:41.577Z,47.32
2023-02-07T13:02:33.741Z,48.42
2023-02-07T13:05:32.809Z,47.99
2023-02-07T13:08:17.306Z,47.75
2023-02-07T13:11:02.701Z,47.81
2023-02-07T13:13:41.499Z,48.52
2023-02-07T13:16:21.393Z,47.11
2023-02-07T13:19:01.103Z,46.93
2023-02-07T13:21:44.246Z,47.25
2023-02-07T13:24:23.039Z,48.32
2023-02-07T13:27:00.846Z,47.27
2023-02-07T13:29:35.986Z,48.49
2023-02-07T13:32:25.037Z,48.53
2023-02-07T13:35:04.845Z,48.15
2023-02-07T13:37:45.205Z,48.88
2023-02-07T13:40:40.776Z,47.69
2023-02-07T13:43:19.653Z,48.49
2023-02-07T13:46:02.520Z,49.37
2023-02-07T13:48:41.364Z,48.24
2023-02-07T13:51:25.564Z,47.71
2023-02-07T13:54:05.287Z,48.54
2023-02-07T13:56:51.644Z,48.30
2023-02-07T13:59:43.507Z,48.21
2023-02-07T14:02:26.955Z,48.50
2023-02-07T14:05:10.270Z,47.70
2023-02-07T14:07:46.508Z,48.01
2023-02-07T14:10:46.222Z,48.26
2023-02-07T14:13:36.861Z,49.26
2023-02-07T14:16:13.406Z,49.09
2023-02-07T14:18:51.262Z,48.22
2023-02-07T14:21:53.256Z,48.55
2023-02-07T14:24:36.785Z,49.53
2023-02-07T14:27:30.589Z,50.39
2023-02-07T14:30:21.719Z,51.07
2023-02-07T14:33:16.663Z,52.03
2023-02-07T14:36:09.403Z,51.83
2023-02-07T14:38:46.402Z,51.92
2023-02-07T14:41:41.615Z,51.25
2023-02-07T14:44:28.046Z,51.38
2023-02-07T14:47:03.069Z,51.53
2023-02-07T14:49:40.351Z,51.35
2023-02-07T14:52:17.513Z,50.98
2023-02-07T14:54:54.910Z,51.05
2023-02-07T14:57:46.913Z,50.92
2023-02-07T15:00:31.796Z,51.40
2023-02-07T15:03:09.795Z,50.83
2023-02-07T15:05:52.278Z,51.81
2023-02-07T15:08:37.106Z,50.30
2023-02-07T15:11:38.281Z,50.57
2023-02-07T15:14:50.160Z,51.50
2023-02-07T15:17:28.847Z,51.50
2023-02-07T15:20:07.155Z,52.16
2023-02-07T15:22:40.659Z,52.70
2023-02-07T15:25:27.055Z,52.58
2023-02-07T15:28:11.037Z,52.18
2023-02-07T15:31:19.475Z,51.89
2023-02-07T15:33:55.976Z,52.60
2023-02-07T15:36:39.504Z,52.76
2023-02-07T15:39:19.629Z,53.16
2023-02-07T15:41:55.944Z,52.56
2023-02-07T15:44:43.955Z,52.24
2023-02-07T15:47:36.652Z,52.08
2023-02-07T15:50:20.843Z,53.10
2023-02-07T15:52:57.472Z,53.83
2023-02-07T15:55:37.668Z,53.46
2023-02-07T15:58:19.762Z,54.09
2023-02-07T16:00:53.158Z,54.62
2023-02-07T16:03:47.083Z,54.60
2023-02-07T16:06:25.173Z,54.79
2023-02-07T16:09:12.859Z,55.40
2023-02-07T16:11:45.835Z,55.49
2023-02-07T16:14:25.953Z,55.53
2023-02-07T16:17:00.444Z,55.73
2023-02-07T16:19:49.011Z,55.50
2023-02-07T16:22:33.414Z,55.67
2023-02-07T16:25:06.576Z,55.56
2023-02-07T16:27:48.349Z,55.96
2023-02-07T16:30:24.178Z,56.61
2023-02-07T16:33:17.219Z,57.06
2023-02-07T16:35:52.898Z,57.27
2023-02-07T16:38:25.379Z,57.36
2023-02-07T16:41:06.338Z,57.64
2023-02-07T16:43:46.451Z,57.43
2023-02-07T16:46:21.858Z,57.76
2023-02-07T16:49:04.620Z,57.77
2023-02-07T16:51:45.750Z,57.82
2023-02-07T16:54:25.038Z,57.30
2023-02-07T16:57:01.424Z,57.87
2023-02-07T16:59:34.837Z,58.29
2023-02-07T17:02:17.291Z,59.44
2023-02-07T17:04:49.838Z,59.11
2023-02-07T17:07:36.231Z,59.14
2023-02-07T17:10:23.274Z,60.02
2023-02-07T17:13:05.182Z,60.04
2023-02-07T17:15:39.381Z,59.41
2023-02-07T17:18:13.462Z,59.48
2023-02-07T17:21:11.988Z,60.43
2023-02-07T17:23:49.585Z,61.18
2023-02-07T17:26:27.778Z,62.01
2023-02-07T17:29:03.056Z,61.12
2023-02-07T17:31:35.315Z,60.87
2023-02-07T17:34:08.368Z,58.65
2023-02-07T17:36:41.113Z,58.53
2023-02-07T17:39:25.994Z,57.97
2023-02-07T17:42:07.594Z,57.84
2023-02-07T17:44:40.674Z,58.11
2023-02-07T17:47:13.110Z,57.76
2023-02-07T17:49:45.949Z,57.55
2023-02-07T17:52:18.148Z,57.87
2023-02-07T17:55:00.911Z,57.54
2023-02-07T17:57:33.187Z,57.29
2023-02-07T18:00:06.468Z,57.13
2023-02-07T18:02:40.475Z,57.58
2023-02-07T18:05:13.360Z,58.00
2023-02-07T18:07:51.474Z,58.06
2023-02-07T18:10:32.390Z,57.87
2023-02-07T18:13:04.788Z,57.95
2023-02-07T18:15:37.505Z,57.82
2023-02-07T18:18:09.655Z,58.25
2023-02-07T18:20:42.253Z,58.85
2023-02-07T18:23:15.754Z,59.40
2023-02-07T18:25:54.435Z,59.54
2023-02-07T18:28:26.462Z,59.52
2023-02-07T18:31:00.472Z,59.74
2023-02-07T18:33:36.811Z,60.66
2023-02-07T18:36:10.520Z,61.16
2023-02-07T18:38:47.999Z,61.27
2023-02-07T18:41:40.323Z,62.41
2023-02-07T18:44:12.839Z,62.19
2023-02-07T18:46:45.080Z,62.63
2023-02-07T18:49:30.928Z,63.05
2023-02-07T18:52:03.078Z,63.61
2023-02-07T18:54:36.663Z,63.68
2023-02-07T18:57:11.804Z,64.15
2023-02-07T18:59:52.014Z,62.47
2023-02-07T19:02:29.288Z,62.55
2023-02-07T19:05:06.860Z,62.42
2023-02-07T19:07:44.516Z,62.59
2023-02-07T19:10:17.696Z,62.54
2023-02-07T19:13:06.180Z,62.45
2023-02-07T19:15:50.508Z,62.25
2023-02-07T19:18:23.195Z,62.01
2023-02-07T19:20:55.361Z,61.43
2023-02-07T19:23:31.136Z,61.07
2023-02-07T19:26:03.652Z,61.00
2023-02-07T19:28:41.178Z,62.35
2023-02-07T19:31:18.542Z,62.89
2023-02-07T19:34:06.276Z,63.27
2023-02-07T19:36:38.197Z,63.38
2023-02-07T19:39:31.256Z,62.08
2023-02-07T19:42:08.317Z,63.06
2023-02-07T19:44:44.937Z,62.66
2023-02-07T19:47:17.115Z,63.75
2023-02-07T19:49:52.186Z,63.21
2023-02-07T19:52:26.034Z,62.28
2023-02-07T19:54:58.853Z,61.21
2023-02-07T19:57:31.076Z,61.71
2023-02-07T20:00:07.322Z,61.65
2023-02-07T20:02:39.775Z,62.56
2023-02-07T20:05:12.443Z,62.88
2023-02-07T20:07:44.754Z,62.36
2023-02-07T20:10:17.530Z,61.39
2023-02-07T20:12:49.856Z,61.98
2023-02-07T20:15:25.266Z,62.51
2023-02-07T20:17:57.479Z,62.96
2023-02-07T20:20:30.238Z,62.97
2023-02-07T20:23:02.460Z,62.47
2023-02-07T20:25:37.899Z,62.77
2023-02-07T20:28:11.389Z,63.04
2023-02-07T20:30:49.653Z,63.30
2023-02-07T20:33:21.761Z,63.64
2023-02-07T20:35:57.402Z,63.20
2023-02-07T20:38:29.784Z,64.23
2023-02-07T20:41:10.032Z,64.21
2023-02-07T20:43:43.138Z,64.33
2023-02-07T20:46:18.574Z,64.60
2023-02-07T20:48:50.922Z,65.56
2023-02-07T20:51:24.206Z,65.12
2023-02-07T20:54:00.122Z,65.19
2023-02-07T20:56:33.831Z,64.57
2023-02-07T20:59:06.270Z,63.62
2023-02-07T21:01:42.726Z,62.84
2023-02-07T21:04:15.024Z,63.31
2023-02-07T21:06:48.221Z,63.18
2023-02-07T21:09:20.900Z,62.32
2023-02-07T21:11:55.646Z,62.74
2023-02-07T21:14:31.032Z,63.22
2023-02-07T21:17:09.556Z,63.64
2023-02-07T21:19:41.880Z,63.88
2023-02-07T21:22:14.255Z,63.79
2023-02-07T21:24:46.022Z,63.81
2023-02-07T21:27:18.176Z,64.57
2023-02-07T21:29:49.987Z,64.67
2023-02-07T21:32:24.949Z,64.05
2023-02-07T21:34:56.598Z,64.46
2023-02-07T21:37:59.057Z,64.96
2023-02-07T21:40:30.954Z,65.39
2023-02-07T21:43:03.127Z,65.14
2023-02-07T21:45:41.490Z,65.73
2023-02-07T21:48:49.752Z,65.82
2023-02-07T21:51:39.078Z,65.93
2023-02-07T21:54:15.931Z,66.37
2023-02-07T21:56:48.066Z,67.05
2023-02-07T21:59:22.743Z,67.18
2023-02-07T22:01:55.948Z,67.10
2023-02-07T22:04:32.156Z,67.35
2023-02-07T22:07:03.739Z,67.22
2023-02-07T22:09:35.680Z,67.34
2023-02-07T22:12:10.585Z,67.04
2023-02-07T22:14:45.042Z,67.07
2023-02-07T22:17:16.260Z,67.66
2023-02-07T22:19:54.181Z,67.65
2023-02-07T22:22:25.547Z,67.24
2023-02-07T22:24:57.569Z,67.59
2023-02-07T22:27:29.031Z,68.12
2023-02-07T22:33:00.695Z,67.82
2023-02-07T22:35:39.478Z,68.51
2023-02-07T22:38:12.213Z,68.94
2023-02-07T22:40:45.864Z,69.38
2023-02-07T22:43:22.126Z,70.23
2023-02-07T22:45:55.976Z,70.67
2023-02-07T22:48:27.433Z,70.90
2023-02-07T22:51:02.720Z,71.28
2023-02-07T22:53:34.024Z,70.88
2023-02-07T22:56:08.888Z,69.30
2023-02-07T22:58:40.843Z,69.77
2023-02-07T23:01:23.126Z,70.50
2023-02-07T23:03:55.628Z,70.36
2023-02-07T23:06:32.714Z,71.40
2023-02-07T23:09:06.570Z,71.18
2023-02-07T23:11:39.516Z,70.15
2023-02-07T23:14:10.848Z,69.77
2023-02-07T23:16:43.344Z,70.25
2023-02-07T23:19:17.630Z,70.96
2023-02-07T23:21:52.218Z,70.41
2023-02-07T23:24:23.952Z,70.18
2023-02-07T23:26:55.866Z,71.19
2023-02-07T23:29:34.106Z,71.59
2023-02-07T23:32:11.216Z,70.81
2023-02-07T23:34:44.444Z,71.58
2023-02-07T23:37:19.613Z,71.97
2023-02-07T23:39:51.365Z,72.48
2023-02-07T23:42:23.657Z,72.84
2023-02-07T23:44:55.366Z,72.93
2023-02-07T23:47:27.477Z,73.71
2023-02-07T23:49:59.258Z,73.37
2023-02-07T23:52:34.208Z,73.97
2023-02-07T23:55:05.727Z,73.66
2023-02-07T23:57:37.685Z,74.02
